createdAt,value
2022-12-01T00:01:45.085Z,-7.26
2022-12-01T00:04:16.119Z,-7.26
2022-12-01T00:06:47.194Z,-7.28
2022-12-01T00:09:36.064Z,-7.27
2022-12-01T00:12:07.378Z,-7.24
2022-12-01T00:14:38.615Z,-7.27
2022-12-01T00:17:09.791Z,-7.28
2022-12-01T00:19:41.265Z,-7.23
2022-12-01T00:22:12.191Z,-7.25
2022-12-01T00:24:43.175Z,-7.29
2022-12-01T00:27:13.986Z,-7.29
2022-12-01T00:29:44.846Z,-7.29
2022-12-01T00:32:15.944Z,-7.25
2022-12-01T00:34:46.852Z,-7.25
2022-12-01T00:37:17.742Z,-7.28
2022-12-01T00:39:49.150Z,-7.32
2022-12-01T00:42:21.273Z,-7.37
2022-12-01T00:44:52.122Z,-7.40
2022-12-01T00:47:23.075Z,-7.39
2022-12-01T00:49:54.024Z,-7.39
2022-12-01T00:52:25.045Z,-7.41
2022-12-01T00:54:55.902Z,-7.39
2022-12-01T00:57:26.957Z,-7.39
2022-12-01T00:59:58.246Z,-7.43
2022-12-01T01:02:29.162Z,-7.45
2022-12-01T01:05:00.245Z,-7.49
2022-12-01T01:07:32.311Z,-7.49
2022-12-01T01:10:03.225Z,-7.47
2022-12-01T01:12:34.005Z,-7.44
2022-12-01T01:15:05.858Z,-7.44
2022-12-01T01:17:36.656Z,-7.47
2022-12-01T01:20:07.960Z,-7.47
2022-12-01T01:22:38.756Z,-7.49
2022-12-01T01:25:10.241Z,-7.45
2022-12-01T01:27:41.171Z,-7.44
2022-12-01T01:30:12.614Z,-7.44
2022-12-01T01:32:43.474Z,-7.40
2022-12-01T01:35:14.398Z,-7.40
2022-12-01T01:37:45.300Z,-7.43
2022-12-01T01:40:17.099Z,-7.45
2022-12-01T01:42:47.927Z,-7.47
2022-12-01T01:45:20.356Z,-7.53
2022-12-01T01:47:52.976Z,-7.58
2022-12-01T01:50:25.265Z,-7.54
2022-12-01T01:53:00.305Z,-7.57
2022-12-01T01:55:32.669Z,-7.52
2022-12-01T01:58:05.256Z,-7.52
2022-12-01T02:00:37.197Z,-7.52
2022-12-01T02:03:09.183Z,-7.49
2022-12-01T02:05:40.632Z,-7.52
2022-12-01T02:08:13.255Z,-7.48
2022-12-01T02:11:01.740Z,-7.52
2022-12-01T02:13:51.435Z,-7.55
2022-12-01T02:16:26.486Z,-7.54
2022-12-01T02:19:04.872Z,-7.59
2022-12-01T02:21:55.615Z,-7.63
2022-12-01T02:24:33.727Z,-7.66
2022-12-01T02:27:22.693Z,-7.68
2022-12-01T02:29:57.598Z,-7.66
2022-12-01T02:32:36.461Z,-7.71
2022-12-01T02:35:17.868Z,-7.70
2022-12-01T02:38:02.198Z,-7.64
2022-12-01T02:40:35.021Z,-7.61
2022-12-01T02:43:10.171Z,-7.62
2022-12-01T02:45:42.515Z,-7.64
2022-12-01T02:48:14.973Z,-7.67
2022-12-01T02:50:46.743Z,-7.69
2022-12-01T02:53:19.141Z,-7.69
2022-12-01T02:55:54.382Z,-7.68
2022-12-01T02:58:25.571Z,-7.68
2022-12-01T03:01:00.972Z,-7.64
2022-12-01T03:03:42.463Z,-7.65
2022-12-01T03:06:15.266Z,-7.66
2022-12-01T03:08:47.578Z,-7.65
2022-12-01T03:11:21.566Z,-7.66
2022-12-01T03:13:54.203Z,-7.67
2022-12-01T03:16:32.683Z,-7.62
2022-12-01T03:19:07.658Z,-7.62
2022-12-01T03:21:41.771Z,-7.52
2022-12-01T03:24:14.157Z,-7.55
2022-12-01T03:26:46.676Z,-7.59
2022-12-01T03:29:19.128Z,-7.61
2022-12-01T03:31:51.476Z,-7.58
2022-12-01T03:34:24.506Z,-7.61
2022-12-01T03:36:59.809Z,-7.64
2022-12-01T03:39:33.751Z,-7.64
2022-12-01T03:42:06.856Z,-7.66
2022-12-01T03:44:39.122Z,-7.66
2022-12-01T03:47:14.982Z,-7.62
2022-12-01T03:49:47.396Z,-7.60
2022-12-01T03:52:23.473Z,-7.62
2022-12-01T03:55:02.080Z,-7.57
2022-12-01T03:57:34.899Z,-7.58
2022-12-01T04:00:07.063Z,-7.58
2022-12-01T04:02:40.492Z,-7.57
2022-12-01T04:05:11.672Z,-7.55
2022-12-01T04:07:43.452Z,-7.53
2022-12-01T04:10:14.782Z,-7.51
2022-12-01T04:12:46.014Z,-7.54
2022-12-01T04:15:17.253Z,-7.50
2022-12-01T04:17:48.702Z,-7.49
2022-12-01T04:20:19.601Z,-7.47
2022-12-01T04:22:50.848Z,-7.46
2022-12-01T04:25:22.155Z,-7.46
2022-12-01T04:27:53.455Z,-7.42
2022-12-01T04:30:25.327Z,-7.41
2022-12-01T04:32:56.593Z,-7.38
2022-12-01T04:35:28.164Z,-7.43
2022-12-01T04:37:59.391Z,-7.44
2022-12-01T04:40:30.609Z,-7.44
2022-12-01T04:43:01.664Z,-7.48
2022-12-01T04:45:32.655Z,-7.50
2022-12-01T04:48:03.615Z,-7.51
2022-12-01T04:50:34.757Z,-7.51
2022-12-01T04:53:05.878Z,-7.39
2022-12-01T04:55:39.763Z,-7.37
2022-12-01T04:58:11.087Z,-7.36
2022-12-01T05:00:43.498Z,-7.38
2022-12-01T05:03:16.036Z,-7.39
2022-12-01T05:05:47.092Z,-7.38
2022-12-01T05:08:18.386Z,-7.39
2022-12-01T05:10:49.720Z,-7.38
2022-12-01T05:13:21.202Z,-7.36
2022-12-01T05:15:56.359Z,-7.36
2022-12-01T05:18:28.203Z,-7.35
2022-12-01T05:20:59.744Z,-7.33
2022-12-01T05:23:33.193Z,-7.30
2022-12-01T05:26:05.977Z,-7.27
2022-12-01T05:28:37.702Z,-7.17
2022-12-01T05:31:08.868Z,-7.10
2022-12-01T05:33:40.348Z,-7.07
2022-12-01T05:36:11.388Z,-7.03
2022-12-01T05:41:22.634Z,-6.93
2022-12-01T05:43:54.822Z,-6.84
2022-12-01T05:46:25.864Z,-6.85
2022-12-01T05:48:57.597Z,-6.79
2022-12-01T05:51:30.226Z,-6.74
2022-12-01T05:54:01.271Z,-6.63
2022-12-01T05:56:32.851Z,-6.59
2022-12-01T05:59:04.175Z,-6.57
2022-12-01T06:01:35.692Z,-6.53
2022-12-01T06:04:07.308Z,-6.49
2022-12-01T06:06:38.815Z,-6.43
2022-12-01T06:09:10.261Z,-6.41
2022-12-01T06:11:59.273Z,-6.36
2022-12-01T06:14:30.794Z,-6.34
2022-12-01T06:17:03.211Z,-6.32
2022-12-01T06:19:34.761Z,-6.25
2022-12-01T06:22:06.901Z,-6.21
2022-12-01T06:24:38.013Z,-6.14
2022-12-01T06:27:10.127Z,-6.12
2022-12-01T06:29:42.375Z,-6.07
2022-12-01T06:32:13.874Z,-6.00
2022-12-01T06:34:44.758Z,-5.95
2022-12-01T06:37:16.205Z,-5.89
2022-12-01T06:39:48.125Z,-5.78
2022-12-01T06:42:19.779Z,-5.67
2022-12-01T06:44:51.834Z,-5.67
2022-12-01T06:47:23.482Z,-5.59
2022-12-01T06:49:56.509Z,-5.49
2022-12-01T06:52:28.967Z,-5.44
2022-12-01T06:55:00.761Z,-5.33
2022-12-01T06:57:32.114Z,-5.27
2022-12-01T07:00:04.595Z,-5.23
2022-12-01T07:02:37.280Z,-5.18
2022-12-01T07:05:08.609Z,-5.13
2022-12-01T07:07:40.476Z,-5.08
2022-12-01T07:10:12.481Z,-5.02
2022-12-01T07:12:43.771Z,-4.96
2022-12-01T07:15:14.990Z,-4.91
2022-12-01T07:17:46.135Z,-4.81
2022-12-01T07:20:17.049Z,-4.66
2022-12-01T07:22:48.475Z,-4.43
2022-12-01T07:25:19.573Z,-4.25
2022-12-01T07:27:50.924Z,-4.12
2022-12-01T07:30:28.102Z,-4.01
2022-12-01T07:32:55.883Z,-3.92
2022-12-01T07:35:27.521Z,-3.87
2022-12-01T07:37:59.152Z,-3.81
2022-12-01T07:40:30.540Z,-3.76
2022-12-01T07:43:02.252Z,-3.66
2022-12-01T07:45:33.566Z,-3.49
2022-12-01T07:48:05.323Z,-3.26
2022-12-01T07:50:36.594Z,-3.11
2022-12-01T07:53:08.377Z,-3.02
2022-12-01T07:55:39.867Z,-2.92
2022-12-01T07:58:11.118Z,-2.90
2022-12-01T08:00:42.093Z,-2.95
2022-12-01T08:03:13.150Z,-2.96
2022-12-01T08:05:44.278Z,-2.76
2022-12-01T08:08:16.328Z,-2.54
2022-12-01T08:10:47.411Z,-2.23
2022-12-01T08:13:18.202Z,-1.93
2022-12-01T08:15:49.225Z,-1.68
2022-12-01T08:18:21.189Z,-1.49
2022-12-01T08:20:53.125Z,-1.38
2022-12-01T08:23:24.542Z,-1.31
2022-12-01T08:25:55.616Z,-1.18
2022-12-01T08:28:27.350Z,-0.89
2022-12-01T08:30:59.339Z,-0.85
2022-12-01T08:33:31.702Z,-0.99
2022-12-01T08:36:03.322Z,-1.11
2022-12-01T08:38:35.275Z,-1.29
2022-12-01T08:41:08.396Z,-1.48
2022-12-01T08:43:57.334Z,-1.68
2022-12-01T08:46:14.316Z,-1.89
2022-12-01T08:48:45.602Z,-2.11
2022-12-01T08:51:17.832Z,-2.29
2022-12-01T08:53:50.551Z,-2.39
2022-12-01T08:56:26.382Z,-2.49
2022-12-01T08:58:58.572Z,-2.58
2022-12-01T09:01:29.824Z,-2.64
2022-12-01T09:04:09.247Z,-2.65
2022-12-01T09:06:42.335Z,-2.65
2022-12-01T09:09:17.902Z,-2.64
2022-12-01T09:11:49.589Z,-2.65
2022-12-01T09:14:21.486Z,-2.65
2022-12-01T09:16:52.906Z,-2.69
2022-12-01T09:19:25.317Z,-2.70
2022-12-01T09:21:56.713Z,-2.70
2022-12-01T09:24:28.211Z,-2.66
2022-12-01T09:27:02.062Z,-2.63
2022-12-01T09:29:33.624Z,-2.60
2022-12-01T09:32:05.247Z,-2.55
2022-12-01T09:34:37.088Z,-2.51
2022-12-01T09:37:09.275Z,-2.44
2022-12-01T09:39:42.361Z,-2.41
2022-12-01T09:42:15.684Z,-2.37
2022-12-01T09:44:53.645Z,-2.35
2022-12-01T09:47:29.593Z,-2.33
2022-12-01T09:50:08.804Z,-2.31
2022-12-01T09:52:45.231Z,-2.29
2022-12-01T09:55:17.492Z,-2.27
2022-12-01T09:57:49.839Z,-2.28
2022-12-01T10:00:22.378Z,-2.24
2022-12-01T10:02:57.883Z,-2.22
2022-12-01T10:05:30.342Z,-2.16
2022-12-01T10:08:03.763Z,-2.16
2022-12-01T10:10:36.730Z,-2.08
2022-12-01T10:13:09.737Z,-2.13
2022-12-01T10:15:45.367Z,-2.17
2022-12-01T10:18:17.652Z,-2.16
2022-12-01T10:20:50.043Z,-2.13
2022-12-01T10:23:32.952Z,-2.13
2022-12-01T10:26:05.975Z,-2.08
2022-12-01T10:28:38.591Z,-1.98
2022-12-01T10:31:11.368Z,-1.82
2022-12-01T10:33:47.220Z,-1.59
2022-12-01T10:36:18.186Z,-1.37
2022-12-01T10:38:49.098Z,-1.24
2022-12-01T10:41:21.663Z,-1.05
2022-12-01T10:43:53.260Z,-0.84
2022-12-01T10:46:28.879Z,-0.77
2022-12-01T10:49:01.140Z,-0.80
2022-12-01T10:51:32.113Z,-0.85
2022-12-01T10:54:11.723Z,-0.93
2022-12-01T10:56:44.122Z,-0.99
2022-12-01T10:59:31.992Z,-1.07
2022-12-01T11:02:03.913Z,-1.11
2022-12-01T11:04:49.421Z,-1.14
2022-12-01T11:07:22.448Z,-1.15
2022-12-01T11:09:57.804Z,-1.23
2022-12-01T11:12:28.895Z,-1.31
2022-12-01T11:15:00.575Z,-1.40
2022-12-01T11:17:46.071Z,-1.47
2022-12-01T11:20:24.174Z,-1.52
2022-12-01T11:23:13.497Z,-1.54
2022-12-01T11:25:45.966Z,-1.49
2022-12-01T11:28:19.809Z,-1.44
2022-12-01T11:30:56.561Z,-1.39
2022-12-01T11:33:25.857Z,-1.37
2022-12-01T11:35:56.907Z,-1.33
2022-12-01T11:38:30.329Z,-1.32
2022-12-01T11:41:02.190Z,-1.33
2022-12-01T11:43:34.912Z,-1.36
2022-12-01T11:46:10.206Z,-1.41
2022-12-01T11:48:41.595Z,-1.43
2022-12-01T11:51:14.490Z,-1.44
2022-12-01T11:53:46.561Z,-1.46
2022-12-01T11:56:28.969Z,-1.49
2022-12-01T11:59:05.353Z,-1.49
2022-12-01T12:01:44.189Z,-1.57
2022-12-01T12:04:32.963Z,-1.61
2022-12-01T12:07:12.037Z,-1.71
2022-12-01T12:09:56.621Z,-1.80
2022-12-01T12:12:35.830Z,-1.88
2022-12-01T12:15:08.827Z,-1.96
2022-12-01T12:17:50.659Z,-2.02
2022-12-01T12:20:26.341Z,-2.10
2022-12-01T12:23:10.683Z,-2.20
2022-12-01T12:25:49.937Z,-2.27
2022-12-01T12:28:26.102Z,-2.36
2022-12-01T12:31:15.013Z,-2.44
2022-12-01T12:33:48.161Z,-2.52
2022-12-01T12:36:24.321Z,-2.62
2022-12-01T12:38:57.444Z,-2.73
2022-12-01T12:41:41.794Z,-2.82
2022-12-01T12:44:24.032Z,-2.90
2022-12-01T12:47:05.625Z,-2.99
2022-12-01T12:49:47.586Z,-3.06
2022-12-01T12:52:24.075Z,-3.14
2022-12-01T12:54:56.897Z,-3.22
2022-12-01T12:57:33.034Z,-3.24
2022-12-01T13:00:06.464Z,-3.32
2022-12-01T13:02:39.584Z,-3.40
2022-12-01T13:05:12.323Z,-3.47
2022-12-01T13:07:50.479Z,-3.53
2022-12-01T13:10:23.782Z,-3.55
2022-12-01T13:12:59.594Z,-3.61
2022-12-01T13:15:31.728Z,-3.64
2022-12-01T13:18:05.210Z,-3.67
2022-12-01T13:20:37.922Z,-3.68
2022-12-01T13:23:10.966Z,-3.69
2022-12-01T13:25:43.592Z,-3.72
2022-12-01T13:28:16.237Z,-3.75
2022-12-01T13:31:05.415Z,-3.81
2022-12-01T13:33:37.826Z,-3.84
2022-12-01T13:38:43.344Z,-3.88
2022-12-01T13:41:21.946Z,-3.90
2022-12-01T13:43:54.684Z,-3.88
2022-12-01T13:46:27.466Z,-3.87
2022-12-01T13:48:59.771Z,-3.85
2022-12-01T13:51:32.456Z,-3.85
2022-12-01T13:54:05.708Z,-3.85
2022-12-01T13:56:39.473Z,-3.86
2022-12-01T13:59:29.075Z,-3.83
2022-12-01T14:02:17.337Z,-3.84
2022-12-01T14:04:49.236Z,-3.82
2022-12-01T14:07:25.117Z,-3.80
2022-12-01T14:09:57.497Z,-3.79
2022-12-01T14:12:32.106Z,-3.79
2022-12-01T14:15:04.469Z,-3.81
2022-12-01T14:17:36.826Z,-3.84
2022-12-01T14:20:09.208Z,-3.85
2022-12-01T14:22:42.229Z,-3.87
2022-12-01T14:25:23.828Z,-3.91
2022-12-01T14:27:56.748Z,-3.92
2022-12-01T14:30:38.828Z,-3.97
2022-12-01T14:33:27.885Z,-4.02
2022-12-01T14:36:03.082Z,-4.10
2022-12-01T14:38:34.701Z,-4.18
2022-12-01T14:41:09.964Z,-4.25
2022-12-01T14:44:00.148Z,-4.29
2022-12-01T14:46:33.272Z,-4.30
2022-12-01T14:49:05.939Z,-4.32
2022-12-01T14:51:37.403Z,-4.36
2022-12-01T14:54:10.493Z,-4.34
2022-12-01T14:56:42.981Z,-4.35
2022-12-01T14:59:22.886Z,-4.36
2022-12-01T15:01:55.180Z,-4.35
2022-12-01T15:04:26.455Z,-4.36
2022-12-01T15:06:57.665Z,-4.37
2022-12-01T15:09:36.189Z,-4.37
2022-12-01T15:12:04.051Z,-4.35
2022-12-01T15:14:36.245Z,-4.33
2022-12-01T15:17:09.323Z,-4.34
2022-12-01T15:19:42.133Z,-4.34
2022-12-01T15:22:15.020Z,-4.33
2022-12-01T15:24:46.628Z,-4.32
2022-12-01T15:27:31.086Z,-4.33
2022-12-01T15:30:04.290Z,-4.31
2022-12-01T15:32:38.684Z,-4.30
2022-12-01T15:35:11.103Z,-4.29
2022-12-01T15:37:46.507Z,-4.28
2022-12-01T15:43:02.553Z,-4.30
2022-12-01T15:45:35.533Z,-4.30
2022-12-01T15:48:08.458Z,-4.25
2022-12-01T15:50:46.227Z,-4.22
2022-12-01T15:53:22.269Z,-4.18
2022-12-01T15:55:58.728Z,-4.13
2022-12-01T15:58:31.842Z,-4.07
2022-12-01T16:01:04.834Z,-4.07
2022-12-01T16:03:37.443Z,-4.11
2022-12-01T16:06:11.620Z,-4.11
2022-12-01T16:08:43.170Z,-4.11
2022-12-01T16:11:15.740Z,-4.10
2022-12-01T16:14:00.963Z,-4.12
2022-12-01T16:16:33.458Z,-4.11
2022-12-01T16:19:11.950Z,-4.12
2022-12-01T16:21:44.706Z,-4.16
2022-12-01T16:24:23.325Z,-4.17
2022-12-01T16:26:56.191Z,-4.22
2022-12-01T16:29:28.511Z,-4.26
2022-12-01T16:34:46.307Z,-4.33
2022-12-01T16:37:10.134Z,-4.37
2022-12-01T16:39:42.092Z,-4.41
2022-12-01T16:42:16.499Z,-4.41
2022-12-01T16:44:48.583Z,-4.45
2022-12-01T16:47:24.363Z,-4.46
2022-12-01T16:49:55.355Z,-4.48
2022-12-01T16:54:59.867Z,-4.47
2022-12-01T16:57:31.610Z,-4.44
2022-12-01T17:00:02.619Z,-4.43
2022-12-01T17:02:33.871Z,-4.41
2022-12-01T17:05:05.476Z,-4.41
2022-12-01T17:07:36.551Z,-4.39
2022-12-01T17:10:08.440Z,-4.35
2022-12-01T17:12:39.678Z,-4.31
2022-12-01T17:15:11.932Z,-4.29
2022-12-01T17:17:42.772Z,-4.26
2022-12-01T17:20:14.309Z,-4.26
2022-12-01T17:22:45.275Z,-4.26
2022-12-01T17:25:16.373Z,-4.28
2022-12-01T17:27:47.263Z,-4.29
2022-12-01T17:30:18.679Z,-4.33
2022-12-01T17:32:49.807Z,-4.36
2022-12-01T17:35:21.568Z,-4.43
2022-12-01T17:37:52.520Z,-4.47
2022-12-01T17:40:23.781Z,-4.47
2022-12-01T17:42:55.173Z,-4.44
2022-12-01T17:45:26.082Z,-4.50
2022-12-01T17:47:56.945Z,-4.53
2022-12-01T17:50:28.801Z,-4.53
2022-12-01T17:52:59.766Z,-4.54
2022-12-01T17:55:30.683Z,-4.55
2022-12-01T17:58:03.604Z,-4.59
2022-12-01T18:00:34.743Z,-4.63
2022-12-01T18:03:05.695Z,-4.68
2022-12-01T18:05:36.819Z,-4.72
2022-12-01T18:08:07.755Z,-4.73
2022-12-01T18:10:39.695Z,-4.78
2022-12-01T18:13:11.071Z,-4.81
2022-12-01T18:15:42.242Z,-4.85
2022-12-01T18:18:13.486Z,-4.78
2022-12-01T18:20:44.824Z,-4.82
2022-12-01T18:23:16.030Z,-4.85
2022-12-01T18:25:47.228Z,-4.92
2022-12-01T18:28:18.134Z,-4.95
2022-12-01T18:30:49.708Z,-4.99
2022-12-01T18:33:21.239Z,-5.00
2022-12-01T18:35:53.245Z,-5.02
2022-12-01T18:38:25.855Z,-5.05
2022-12-01T18:41:00.247Z,-5.09
2022-12-01T18:43:31.710Z,-5.13
2022-12-01T18:46:03.548Z,-5.13
2022-12-01T18:48:35.302Z,-5.12
2022-12-01T18:51:07.310Z,-5.18
2022-12-01T18:53:38.481Z,-5.19
2022-12-01T18:56:12.014Z,-5.25
2022-12-01T18:58:43.268Z,-5.31
2022-12-01T19:01:21.822Z,-5.34
2022-12-01T19:03:52.847Z,-5.37
2022-12-01T19:06:24.104Z,-5.39
2022-12-01T19:08:55.640Z,-5.40
2022-12-01T19:11:26.550Z,-5.38
2022-12-01T19:13:58.151Z,-5.46
2022-12-01T19:16:31.346Z,-5.57
2022-12-01T19:19:02.769Z,-5.60
2022-12-01T19:21:33.649Z,-5.68
2022-12-01T19:24:04.470Z,-5.73
2022-12-01T19:26:35.416Z,-5.76
2022-12-01T19:29:06.391Z,-5.81
2022-12-01T19:31:37.484Z,-5.86
2022-12-01T19:34:08.392Z,-5.94
2022-12-01T19:36:39.195Z,-5.95
2022-12-01T19:39:10.376Z,-5.95
2022-12-01T19:41:41.115Z,-6.01
2022-12-01T19:44:12.826Z,-6.04
2022-12-01T19:46:43.623Z,-6.08
2022-12-01T19:49:14.514Z,-6.13
2022-12-01T19:51:45.416Z,-6.16
2022-12-01T19:54:17.934Z,-6.22
2022-12-01T19:56:49.211Z,-6.28
2022-12-01T19:59:20.048Z,-6.26
2022-12-01T20:01:51.201Z,-6.26
2022-12-01T20:04:22.253Z,-6.27
2022-12-01T20:06:53.218Z,-6.29
2022-12-01T20:09:24.045Z,-6.27
2022-12-01T20:11:54.861Z,-6.31
2022-12-01T20:14:25.790Z,-6.31
2022-12-01T20:16:57.417Z,-6.33
2022-12-01T20:19:28.231Z,-6.38
2022-12-01T20:21:59.338Z,-6.37
2022-12-01T20:24:30.618Z,-6.39
2022-12-01T20:27:01.730Z,-6.41
2022-12-01T20:29:32.632Z,-6.43
2022-12-01T20:32:03.606Z,-6.45
2022-12-01T20:34:35.871Z,-6.48
2022-12-01T20:37:06.813Z,-6.46
2022-12-01T20:39:39.456Z,-6.44
2022-12-01T20:42:10.440Z,-6.42
2022-12-01T20:44:41.485Z,-6.41
2022-12-01T20:47:12.634Z,-6.37
2022-12-01T20:49:44.142Z,-6.41
2022-12-01T20:52:15.936Z,-6.43
2022-12-01T20:54:47.421Z,-6.43
2022-12-01T20:57:18.531Z,-6.45
2022-12-01T20:59:49.668Z,-6.48
2022-12-01T21:02:20.931Z,-6.51
2022-12-01T21:04:56.313Z,-6.55
2022-12-01T21:07:24.851Z,-6.57
2022-12-01T21:09:55.879Z,-6.57
2022-12-01T21:12:45.711Z,-6.59
2022-12-01T21:15:17.938Z,-6.59
2022-12-01T21:17:50.186Z,-6.62
2022-12-01T21:20:22.583Z,-6.63
2022-12-01T21:22:54.235Z,-6.68
2022-12-01T21:25:25.714Z,-6.68
2022-12-01T21:27:58.164Z,-6.68
2022-12-01T21:30:30.330Z,-6.68
2022-12-01T21:33:03.040Z,-6.67
2022-12-01T21:35:34.576Z,-6.66
2022-12-01T21:38:06.943Z,-6.67
2022-12-01T21:40:37.813Z,-6.66
2022-12-01T21:43:19.771Z,-6.66
2022-12-01T21:45:55.157Z,-6.67
2022-12-01T21:48:26.511Z,-6.65
2022-12-01T21:51:04.665Z,-6.67
2022-12-01T21:53:37.300Z,-6.68
2022-12-01T21:56:09.999Z,-6.71
2022-12-01T21:58:41.323Z,-6.74
2022-12-01T22:01:19.459Z,-6.77
2022-12-01T22:03:50.972Z,-6.80
2022-12-01T22:06:30.378Z,-6.83
2022-12-01T22:09:00.486Z,-6.87
2022-12-01T22:11:31.676Z,-6.89
2022-12-01T22:14:04.113Z,-6.91
2022-12-01T22:16:36.343Z,-6.96
2022-12-01T22:19:11.348Z,-6.98
2022-12-01T22:21:49.176Z,-6.95
2022-12-01T22:24:21.692Z,-6.98
2022-12-01T22:26:56.797Z,-6.98
2022-12-01T22:29:29.631Z,-6.99
2022-12-01T22:32:08.023Z,-6.99
2022-12-01T22:34:43.224Z,-7.01
2022-12-01T22:37:24.027Z,-7.00
2022-12-01T22:39:56.435Z,-6.97
2022-12-01T22:42:33.968Z,-6.96
2022-12-01T22:45:22.574Z,-6.98
2022-12-01T22:47:55.001Z,-6.98
2022-12-01T22:50:33.369Z,-6.99
2022-12-01T22:53:05.711Z,-6.99
2022-12-01T22:55:36.557Z,-7.00
2022-12-01T22:58:21.246Z,-7.00
2022-12-01T23:00:53.570Z,-7.00
2022-12-01T23:03:24.542Z,-7.02
2022-12-01T23:05:57.224Z,-7.04
2022-12-01T23:08:28.112Z,-7.07
2022-12-01T23:10:59.034Z,-7.08
2022-12-01T23:13:29.969Z,-7.09
2022-12-01T23:16:01.001Z,-7.10
2022-12-01T23:18:32.306Z,-7.10
2022-12-01T23:21:04.159Z,-7.11
2022-12-01T23:23:36.754Z,-7.11
2022-12-01T23:26:08.627Z,-7.11
2022-12-01T23:28:39.495Z,-7.10
2022-12-01T23:31:10.881Z,-7.09
2022-12-01T23:33:41.880Z,-7.08
2022-12-01T23:36:17.375Z,-7.08
2022-12-01T23:38:49.084Z,-7.06
2022-12-01T23:41:25.513Z,-7.04
2022-12-01T23:43:55.475Z,-7.03
2022-12-01T23:46:27.956Z,-7.01
2022-12-01T23:49:03.213Z,-6.96
2022-12-01T23:51:35.573Z,-6.93
2022-12-01T23:54:10.994Z,-6.90
2022-12-01T23:56:41.922Z,-6.85
2022-12-01T23:59:14.114Z,-6.78
